Billings, MT (59105)

1:43 PM MST on February 09, 2016 (GMT -0700)
South of Castle Rock Park | | Change Station
CLOSE
Current Station
Personal Weather Station
Location: Billings, MT
Elevation: 3297 ft
Nearby Weather Stations

Elev 3297 ft 45.82 °N, 108.50 °W | Updated 16 seconds ago

Clear
Clear
61.0 °F
Feels Like 61.0 °F
N
0.0
Wind Variable Wind from North
Gusts 0.0 mph

Today
High -- | Low -- °F
--% Chance of Precip.
Yesterday
High -- | Low -- °F
Precip. -- in
Pressure 30.23 in
Visibility 10.0 miles
Clouds Few 12000 ft
Few 20000 ft
Dew Point 32 °F
Humidity 33%
Rainfall 0.00 in
Snow Depth Not available.
7:25 AM 5:31 PM
New Moon, 2% visible
METAR KBIL 091953Z 24015KT 10SM FEW120 FEW200 14/M04 A3023 RMK AO2 SLP235 ACSL DSNT SW-W T01441039
Pressure 30.23 in
Visibility 10.0 miles
Clouds Few 12000 ft
Few 20000 ft
Dew Point 32 °F
Humidity 33%
Rainfall 0.00 in
Snow Depth Not available.
7:25 AM 5:31 PM
New Moon, 2% visible
METAR KBIL 091953Z 24015KT 10SM FEW120 FEW200 14/M04 A3023 RMK AO2 SLP235 ACSL DSNT SW-W T01441039

10-Day Weather Forecast

Almanac

Astronomy

Feb. 09, 2016 Rise Set
Actual Time
Civil Twilight
Nautical Twilight
Astronomical Twilight
Moon
Length of Visible Light
Length of Day
Tomorrow will be .
, % of the Moon is Illuminated

Today's Extremes

State Highs State Lows

Community

WunderPhotos

Upload Photos

1,891,683 photos uploaded!

WunderBlog® & News

Nearby

Air Quality

  Air Quality AQ Index Pollutant
Not available.

Snow Depth

Station Depth Elevation

Earthquake Activity

City Distance Mag. Time & Date
Minimum magnitude displayed is 2.5.

Coastal Water Temperatures

Place Temperature

Stations

Nearby Weather Stations

Station Location Temp. Windchill Dew Point Humidity Wind Precip. Elev Updated Type
                   

Watches & Warnings

There are currently no watches in effect.